sensor_id;sensor_type;location;lat;lon;timestamp;P1;durP1;ratioP1;P2;durP2;ratioP2
15443;SDS011;7822;48.146;11.576;2023-03-20T00:00:44;1.30;;;1.20;;
15443;SDS011;7822;48.146;11.576;2023-03-20T00:03:14;1.40;;;1.30;;
15443;SDS011;7822;48.146;11.576;2023-03-20T00:05:42;2.20;;;1.50;;
15443;SDS011;7822;48.146;11.576;2023-03-20T00:08:10;1.30;;;1.20;;
15443;SDS011;7822;48.146;11.576;2023-03-20T00:10:39;1.53;;;1.43;;
15443;SDS011;7822;48.146;11.576;2023-03-20T00:13:11;1.00;;;1.00;;
15443;SDS011;7822;48.146;11.576;2023-03-20T00:15:41;1.33;;;1.23;;
15443;SDS011;7822;48.146;11.576;2023-03-20T00:18:11;1.30;;;1.20;;
15443;SDS011;7822;48.146;11.576;2023-03-20T00:20:42;1.50;;;1.40;;
15443;SDS011;7822;48.146;11.576;2023-03-20T00:23:10;1.40;;;1.30;;
15443;SDS011;7822;48.146;11.576;2023-03-20T00:25:38;1.60;;;1.10;;
15443;SDS011;7822;48.146;11.576;2023-03-20T00:28:13;1.40;;;1.30;;
15443;SDS011;7822;48.146;11.576;2023-03-20T00:31:01;1.30;;;1.20;;
15443;SDS011;7822;48.146;11.576;2023-03-20T00:33:30;0.97;;;0.93;;
15443;SDS011;7822;48.146;11.576;2023-03-20T00:35:59;1.23;;;1.13;;
15443;SDS011;7822;48.146;11.576;2023-03-20T00:38:26;1.23;;;1.13;;
15443;SDS011;7822;48.146;11.576;2023-03-20T00:40:54;1.00;;;0.93;;
15443;SDS011;7822;48.146;11.576;2023-03-20T00:43:22;1.60;;;1.17;;
15443;SDS011;7822;48.146;11.576;2023-03-20T00:45:49;1.30;;;1.20;;
15443;SDS011;7822;48.146;11.576;2023-03-20T00:48:17;1.10;;;1.10;;
15443;SDS011;7822;48.146;11.576;2023-03-20T00:50:45;1.20;;;1.10;;
15443;SDS011;7822;48.146;11.576;2023-03-20T00:53:14;1.40;;;1.30;;
15443;SDS011;7822;48.146;11.576;2023-03-20T00:55:41;1.30;;;1.20;;
15443;SDS011;7822;48.146;11.576;2023-03-20T00:58:09;1.30;;;1.20;;
15443;SDS011;7822;48.146;11.576;2023-03-20T01:00:38;1.30;;;1.20;;
15443;SDS011;7822;48.146;11.576;2023-03-20T01:03:12;1.50;;;1.40;;
15443;SDS011;7822;48.146;11.576;2023-03-20T01:05:44;1.10;;;1.10;;
15443;SDS011;7822;48.146;11.576;2023-03-20T01:08:14;1.33;;;1.23;;
15443;SDS011;7822;48.146;11.576;2023-03-20T01:10:43;1.30;;;1.20;;
15443;SDS011;7822;48.146;11.576;2023-03-20T01:13:14;1.40;;;1.30;;
15443;SDS011;7822;48.146;11.576;2023-03-20T01:15:47;1.57;;;1.47;;
15443;SDS011;7822;48.146;11.576;2023-03-20T01:18:15;1.20;;;1.10;;
15443;SDS011;7822;48.146;11.576;2023-03-20T01:20:44;1.43;;;1.20;;
15443;SDS011;7822;48.146;11.576;2023-03-20T01:23:12;0.97;;;0.97;;
15443;SDS011;7822;48.146;11.576;2023-03-20T01:25:42;1.40;;;1.30;;
15443;SDS011;7822;48.146;11.576;2023-03-20T01:28:14;1.50;;;1.30;;
15443;SDS011;7822;48.146;11.576;2023-03-20T01:30:43;1.30;;;1.20;;
15443;SDS011;7822;48.146;11.576;2023-03-20T01:33:12;1.50;;;1.40;;
15443;SDS011;7822;48.146;11.576;2023-03-20T01:35:41;1.37;;;1.27;;
15443;SDS011;7822;48.146;11.576;2023-03-20T01:38:11;1.37;;;1.27;;
15443;SDS011;7822;48.146;11.576;2023-03-20T01:40:44;1.00;;;1.00;;
15443;SDS011;7822;48.146;11.576;2023-03-20T01:43:19;1.40;;;1.30;;
15443;SDS011;7822;48.146;11.576;2023-03-20T01:45:52;1.40;;;1.30;;
15443;SDS011;7822;48.146;11.576;2023-03-20T01:48:25;1.07;;;1.00;;
15443;SDS011;7822;48.146;11.576;2023-03-20T01:51:03;1.20;;;1.10;;
15443;SDS011;7822;48.146;11.576;2023-03-20T01:53:30;1.50;;;1.40;;
15443;SDS011;7822;48.146;11.576;2023-03-20T01:56:00;1.73;;;1.20;;
15443;SDS011;7822;48.146;11.576;2023-03-20T01:58:30;1.60;;;1.17;;
15443;SDS011;7822;48.146;11.576;2023-03-20T02:01:04;1.20;;;1.07;;
15443;SDS011;7822;48.146;11.576;2023-03-20T02:03:34;1.07;;;1.07;;
15443;SDS011;7822;48.146;11.576;2023-03-20T02:06:03;1.03;;;1.00;;
15443;SDS011;7822;48.146;11.576;2023-03-20T02:08:33;1.13;;;1.03;;
15443;SDS011;7822;48.146;11.576;2023-03-20T02:11:09;1.50;;;1.40;;
15443;SDS011;7822;48.146;11.576;2023-03-20T02:13:38;1.73;;;1.13;;
15443;SDS011;7822;48.146;11.576;2023-03-20T02:16:08;1.30;;;1.17;;
15443;SDS011;7822;48.146;11.576;2023-03-20T02:18:38;1.17;;;1.07;;
15443;SDS011;7822;48.146;11.576;2023-03-20T02:24:26;1.27;;;1.07;;
15443;SDS011;7822;48.146;11.576;2023-03-20T02:27:31;1.67;;;1.13;;
15443;SDS011;7822;48.146;11.576;2023-03-20T02:30:22;1.00;;;0.97;;
15443;SDS011;7822;48.146;11.576;2023-03-20T02:33:20;1.20;;;1.10;;
15443;SDS011;7822;48.146;11.576;2023-03-20T02:36:06;1.33;;;1.23;;
15443;SDS011;7822;48.146;11.576;2023-03-20T02:38:58;1.30;;;1.20;;
15443;SDS011;7822;48.146;11.576;2023-03-20T02:41:40;0.90;;;0.90;;
15443;SDS011;7822;48.146;11.576;2023-03-20T02:44:16;1.20;;;1.10;;
15443;SDS011;7822;48.146;11.576;2023-03-20T02:46:50;1.20;;;1.20;;
15443;SDS011;7822;48.146;11.576;2023-03-20T02:49:28;1.50;;;1.40;;
15443;SDS011;7822;48.146;11.576;2023-03-20T02:52:08;1.30;;;1.20;;
15443;SDS011;7822;48.146;11.576;2023-03-20T02:54:45;1.00;;;1.00;;
15443;SDS011;7822;48.146;11.576;2023-03-20T02:57:22;1.27;;;1.17;;
15443;SDS011;7822;48.146;11.576;2023-03-20T03:00:03;1.20;;;1.20;;
15443;SDS011;7822;48.146;11.576;2023-03-20T03:02:36;0.97;;;0.97;;
15443;SDS011;7822;48.146;11.576;2023-03-20T03:05:13;1.20;;;1.07;;
15443;SDS011;7822;48.146;11.576;2023-03-20T03:07:47;1.00;;;1.00;;
15443;SDS011;7822;48.146;11.576;2023-03-20T03:10:19;1.00;;;1.00;;
15443;SDS011;7822;48.146;11.576;2023-03-20T03:12:50;1.10;;;1.00;;
15443;SDS011;7822;48.146;11.576;2023-03-20T03:15:22;1.30;;;1.20;;
15443;SDS011;7822;48.146;11.576;2023-03-20T03:17:54;1.30;;;1.20;;
15443;SDS011;7822;48.146;11.576;2023-03-20T03:20:25;1.03;;;1.03;;
15443;SDS011;7822;48.146;11.576;2023-03-20T03:22:55;0.90;;;0.90;;
15443;SDS011;7822;48.146;11.576;2023-03-20T03:25:25;1.20;;;1.10;;
15443;SDS011;7822;48.146;11.576;2023-03-20T03:27:59;1.30;;;1.20;;
15443;SDS011;7822;48.146;11.576;2023-03-20T03:30:31;1.23;;;1.13;;
15443;SDS011;7822;48.146;11.576;2023-03-20T03:33:07;1.40;;;1.30;;
15443;SDS011;7822;48.146;11.576;2023-03-20T03:35:40;1.00;;;1.00;;
15443;SDS011;7822;48.146;11.576;2023-03-20T03:38:12;1.37;;;1.27;;
15443;SDS011;7822;48.146;11.576;2023-03-20T03:40:54;1.17;;;1.17;;
15443;SDS011;7822;48.146;11.576;2023-03-20T03:43:31;1.50;;;1.20;;
15443;SDS011;7822;48.146;11.576;2023-03-20T03:46:05;1.07;;;1.07;;
15443;SDS011;7822;48.146;11.576;2023-03-20T03:48:38;1.10;;;1.10;;
15443;SDS011;7822;48.146;11.576;2023-03-20T03:51:09;1.07;;;1.00;;
15443;SDS011;7822;48.146;11.576;2023-03-20T03:53:41;1.20;;;1.10;;
15443;SDS011;7822;48.146;11.576;2023-03-20T03:56:15;0.93;;;0.93;;
15443;SDS011;7822;48.146;11.576;2023-03-20T03:58:48;1.23;;;1.23;;
15443;SDS011;7822;48.146;11.576;2023-03-20T04:01:19;1.07;;;1.07;;
15443;SDS011;7822;48.146;11.576;2023-03-20T04:03:50;0.90;;;0.90;;
15443;SDS011;7822;48.146;11.576;2023-03-20T04:06:22;1.20;;;1.07;;
15443;SDS011;7822;48.146;11.576;2023-03-20T04:08:51;1.20;;;1.10;;
15443;SDS011;7822;48.146;11.576;2023-03-20T04:11:21;1.00;;;1.00;;
15443;SDS011;7822;48.146;11.576;2023-03-20T04:13:51;1.47;;;1.00;;
15443;SDS011;7822;48.146;11.576;2023-03-20T04:16:19;1.30;;;1.20;;
15443;SDS011;7822;48.146;11.576;2023-03-20T04:18:48;1.50;;;1.40;;
15443;SDS011;7822;48.146;11.576;2023-03-20T04:21:16;1.00;;;1.00;;
15443;SDS011;7822;48.146;11.576;2023-03-20T04:23:44;1.10;;;1.10;;
15443;SDS011;7822;48.146;11.576;2023-03-20T04:26:12;1.40;;;1.30;;
15443;SDS011;7822;48.146;11.576;2023-03-20T04:28:41;1.00;;;1.00;;
15443;SDS011;7822;48.146;11.576;2023-03-20T04:31:09;1.17;;;1.00;;
15443;SDS011;7822;48.146;11.576;2023-03-20T04:33:37;1.10;;;1.00;;
15443;SDS011;7822;48.146;11.576;2023-03-20T04:36:05;1.10;;;0.90;;
15443;SDS011;7822;48.146;11.576;2023-03-20T04:38:34;1.10;;;1.00;;
15443;SDS011;7822;48.146;11.576;2023-03-20T04:41:01;0.80;;;0.80;;
15443;SDS011;7822;48.146;11.576;2023-03-20T04:43:29;0.97;;;0.97;;
15443;SDS011;7822;48.146;11.576;2023-03-20T04:45:58;1.37;;;1.27;;
15443;SDS011;7822;48.146;11.576;2023-03-20T04:48:26;1.03;;;1.03;;
15443;SDS011;7822;48.146;11.576;2023-03-20T04:50:54;1.20;;;1.10;;
15443;SDS011;7822;48.146;11.576;2023-03-20T04:53:22;1.20;;;1.20;;
15443;SDS011;7822;48.146;11.576;2023-03-20T04:55:52;0.80;;;0.80;;
15443;SDS011;7822;48.146;11.576;2023-03-20T04:58:20;0.80;;;0.80;;
15443;SDS011;7822;48.146;11.576;2023-03-20T05:00:48;0.83;;;0.83;;
15443;SDS011;7822;48.146;11.576;2023-03-20T05:03:18;1.13;;;1.13;;
15443;SDS011;7822;48.146;11.576;2023-03-20T05:05:49;1.00;;;1.00;;
15443;SDS011;7822;48.146;11.576;2023-03-20T05:08:16;0.80;;;0.80;;
15443;SDS011;7822;48.146;11.576;2023-03-20T05:10:44;0.90;;;0.90;;
15443;SDS011;7822;48.146;11.576;2023-03-20T05:13:12;1.07;;;1.07;;
15443;SDS011;7822;48.146;11.576;2023-03-20T05:15:39;0.90;;;0.90;;
15443;SDS011;7822;48.146;11.576;2023-03-20T05:18:07;1.20;;;1.10;;
15443;SDS011;7822;48.146;11.576;2023-03-20T05:20:37;1.00;;;1.00;;
15443;SDS011;7822;48.146;11.576;2023-03-20T05:23:04;1.10;;;1.10;;
15443;SDS011;7822;48.146;11.576;2023-03-20T05:25:32;0.90;;;0.90;;
15443;SDS011;7822;48.146;11.576;2023-03-20T05:28:00;0.80;;;0.80;;
15443;SDS011;7822;48.146;11.576;2023-03-20T05:30:28;0.90;;;0.90;;
15443;SDS011;7822;48.146;11.576;2023-03-20T05:32:55;0.80;;;0.80;;
15443;SDS011;7822;48.146;11.576;2023-03-20T05:35:24;1.07;;;1.07;;
15443;SDS011;7822;48.146;11.576;2023-03-20T05:37:52;1.00;;;1.00;;
15443;SDS011;7822;48.146;11.576;2023-03-20T05:40:20;1.00;;;1.00;;
15443;SDS011;7822;48.146;11.576;2023-03-20T05:42:49;0.80;;;0.80;;
15443;SDS011;7822;48.146;11.576;2023-03-20T05:45:17;1.00;;;1.00;;
15443;SDS011;7822;48.146;11.576;2023-03-20T05:47:45;1.10;;;1.00;;
15443;SDS011;7822;48.146;11.576;2023-03-20T05:50:13;0.77;;;0.77;;
15443;SDS011;7822;48.146;11.576;2023-03-20T05:52:41;0.90;;;0.90;;
15443;SDS011;7822;48.146;11.576;2023-03-20T05:55:10;1.00;;;0.90;;
15443;SDS011;7822;48.146;11.576;2023-03-20T05:57:38;1.00;;;1.00;;
15443;SDS011;7822;48.146;11.576;2023-03-20T06:00:06;0.90;;;0.90;;
15443;SDS011;7822;48.146;11.576;2023-03-20T06:02:35;0.70;;;0.70;;
15443;SDS011;7822;48.146;11.576;2023-03-20T06:05:03;1.10;;;1.00;;
15443;SDS011;7822;48.146;11.576;2023-03-20T06:07:31;0.90;;;0.90;;
15443;SDS011;7822;48.146;11.576;2023-03-20T06:09:59;0.97;;;0.97;;
15443;SDS011;7822;48.146;11.576;2023-03-20T06:12:28;1.03;;;1.03;;
15443;SDS011;7822;48.146;11.576;2023-03-20T06:14:56;0.87;;;0.87;;
15443;SDS011;7822;48.146;11.576;2023-03-20T06:17:23;0.80;;;0.80;;
15443;SDS011;7822;48.146;11.576;2023-03-20T06:19:51;0.90;;;0.90;;
15443;SDS011;7822;48.146;11.576;2023-03-20T06:22:19;0.83;;;0.83;;
15443;SDS011;7822;48.146;11.576;2023-03-20T06:24:47;0.97;;;0.97;;
15443;SDS011;7822;48.146;11.576;2023-03-20T06:27:14;0.90;;;0.90;;
15443;SDS011;7822;48.146;11.576;2023-03-20T06:29:43;1.00;;;1.00;;
15443;SDS011;7822;48.146;11.576;2023-03-20T06:32:11;0.80;;;0.80;;
15443;SDS011;7822;48.146;11.576;2023-03-20T06:34:39;1.10;;;1.10;;
15443;SDS011;7822;48.146;11.576;2023-03-20T06:37:07;0.80;;;0.80;;
15443;SDS011;7822;48.146;11.576;2023-03-20T06:39:35;0.83;;;0.80;;
15443;SDS011;7822;48.146;11.576;2023-03-20T06:42:03;1.00;;;1.00;;
15443;SDS011;7822;48.146;11.576;2023-03-20T06:44:30;0.90;;;0.90;;
15443;SDS011;7822;48.146;11.576;2023-03-20T06:46:59;0.83;;;0.80;;
15443;SDS011;7822;48.146;11.576;2023-03-20T06:49:27;1.20;;;1.10;;
15443;SDS011;7822;48.146;11.576;2023-03-20T06:51:54;0.90;;;0.90;;
15443;SDS011;7822;48.146;11.576;2023-03-20T06:54:22;1.17;;;0.80;;
15443;SDS011;7822;48.146;11.576;2023-03-20T06:56:50;0.77;;;0.77;;
15443;SDS011;7822;48.146;11.576;2023-03-20T06:59:18;1.27;;;0.77;;
15443;SDS011;7822;48.146;11.576;2023-03-20T07:01:45;0.90;;;0.90;;
15443;SDS011;7822;48.146;11.576;2023-03-20T07:04:14;0.70;;;0.70;;
15443;SDS011;7822;48.146;11.576;2023-03-20T07:06:42;0.77;;;0.77;;
15443;SDS011;7822;48.146;11.576;2023-03-20T07:09:10;0.70;;;0.70;;
15443;SDS011;7822;48.146;11.576;2023-03-20T07:11:37;1.00;;;0.90;;
15443;SDS011;7822;48.146;11.576;2023-03-20T07:14:05;0.70;;;0.70;;
15443;SDS011;7822;48.146;11.576;2023-03-20T07:16:33;0.87;;;0.80;;
15443;SDS011;7822;48.146;11.576;2023-03-20T07:19:01;1.60;;;0.90;;
15443;SDS011;7822;48.146;11.576;2023-03-20T07:21:30;0.70;;;0.70;;
15443;SDS011;7822;48.146;11.576;2023-03-20T07:23:58;1.00;;;0.90;;
15443;SDS011;7822;48.146;11.576;2023-03-20T07:26:26;1.43;;;1.00;;
15443;SDS011;7822;48.146;11.576;2023-03-20T07:28:54;0.90;;;0.90;;
15443;SDS011;7822;48.146;11.576;2023-03-20T07:31:22;0.83;;;0.83;;
15443;SDS011;7822;48.146;11.576;2023-03-20T07:33:51;1.60;;;1.10;;
15443;SDS011;7822;48.146;11.576;2023-03-20T07:36:18;1.80;;;0.90;;
15443;SDS011;7822;48.146;11.576;2023-03-20T07:38:48;1.10;;;1.10;;
15443;SDS011;7822;48.146;11.576;2023-03-20T07:41:15;0.80;;;0.80;;
15443;SDS011;7822;48.146;11.576;2023-03-20T07:43:43;1.00;;;1.00;;
15443;SDS011;7822;48.146;11.576;2023-03-20T07:46:11;0.90;;;0.90;;
15443;SDS011;7822;48.146;11.576;2023-03-20T07:48:39;1.03;;;0.93;;
15443;SDS011;7822;48.146;11.576;2023-03-20T07:51:06;1.30;;;1.00;;
15443;SDS011;7822;48.146;11.576;2023-03-20T07:53:34;1.30;;;1.20;;
15443;SDS011;7822;48.146;11.576;2023-03-20T07:56:04;1.33;;;1.23;;
15443;SDS011;7822;48.146;11.576;2023-03-20T07:58:32;1.10;;;1.00;;
15443;SDS011;7822;48.146;11.576;2023-03-20T08:01:00;1.03;;;0.93;;
15443;SDS011;7822;48.146;11.576;2023-03-20T08:03:28;0.97;;;0.93;;
15443;SDS011;7822;48.146;11.576;2023-03-20T08:05:56;1.23;;;0.90;;
15443;SDS011;7822;48.146;11.576;2023-03-20T08:08:24;1.00;;;0.97;;
15443;SDS011;7822;48.146;11.576;2023-03-20T08:10:52;1.13;;;1.03;;
15443;SDS011;7822;48.146;11.576;2023-03-20T08:13:21;1.30;;;1.20;;
15443;SDS011;7822;48.146;11.576;2023-03-20T08:15:48;1.43;;;0.97;;
15443;SDS011;7822;48.146;11.576;2023-03-20T08:18:16;1.23;;;0.90;;
15443;SDS011;7822;48.146;11.576;2023-03-20T08:20:45;1.27;;;1.10;;
15443;SDS011;7822;48.146;11.576;2023-03-20T08:23:13;1.23;;;1.13;;
15443;SDS011;7822;48.146;11.576;2023-03-20T08:25:40;1.27;;;1.07;;
15443;SDS011;7822;48.146;11.576;2023-03-20T08:28:08;1.83;;;1.33;;
15443;SDS011;7822;48.146;11.576;2023-03-20T08:30:38;1.30;;;1.20;;
15443;SDS011;7822;48.146;11.576;2023-03-20T08:33:05;1.53;;;1.03;;
15443;SDS011;7822;48.146;11.576;2023-03-20T08:35:33;1.30;;;1.20;;
15443;SDS011;7822;48.146;11.576;2023-03-20T08:38:01;1.67;;;1.17;;
15443;SDS011;7822;48.146;11.576;2023-03-20T08:40:29;1.27;;;1.03;;
15443;SDS011;7822;48.146;11.576;2023-03-20T08:42:57;1.30;;;1.17;;
15443;SDS011;7822;48.146;11.576;2023-03-20T08:45:25;1.30;;;1.00;;
15443;SDS011;7822;48.146;11.576;2023-03-20T08:47:54;1.20;;;1.10;;
15443;SDS011;7822;48.146;11.576;2023-03-20T08:50:22;1.63;;;1.00;;
15443;SDS011;7822;48.146;11.576;2023-03-20T08:52:50;2.87;;;1.57;;
15443;SDS011;7822;48.146;11.576;2023-03-20T08:55:17;2.37;;;1.03;;
15443;SDS011;7822;48.146;11.576;2023-03-20T08:57:45;1.40;;;1.07;;
15443;SDS011;7822;48.146;11.576;2023-03-20T09:00:14;1.43;;;1.10;;
15443;SDS011;7822;48.146;11.576;2023-03-20T09:02:42;2.17;;;1.30;;
15443;SDS011;7822;48.146;11.576;2023-03-20T09:05:11;1.00;;;1.00;;
15443;SDS011;7822;48.146;11.576;2023-03-20T09:07:39;0.83;;;0.80;;
15443;SDS011;7822;48.146;11.576;2023-03-20T09:10:07;1.37;;;1.17;;
15443;SDS011;7822;48.146;11.576;2023-03-20T09:12:36;1.53;;;1.20;;
15443;SDS011;7822;48.146;11.576;2023-03-20T09:15:04;1.33;;;1.10;;
15443;SDS011;7822;48.146;11.576;2023-03-20T09:17:33;0.90;;;0.90;;
15443;SDS011;7822;48.146;11.576;2023-03-20T09:20:01;1.53;;;1.10;;
15443;SDS011;7822;48.146;11.576;2023-03-20T09:22:30;1.37;;;1.20;;
15443;SDS011;7822;48.146;11.576;2023-03-20T09:24:58;1.40;;;1.30;;
15443;SDS011;7822;48.146;11.576;2023-03-20T09:27:26;1.30;;;1.20;;
15443;SDS011;7822;48.146;11.576;2023-03-20T09:29:53;2.20;;;1.30;;
15443;SDS011;7822;48.146;11.576;2023-03-20T09:32:21;1.27;;;1.03;;
15443;SDS011;7822;48.146;11.576;2023-03-20T09:34:49;1.37;;;1.20;;
15443;SDS011;7822;48.146;11.576;2023-03-20T09:37:17;1.30;;;1.20;;
15443;SDS011;7822;48.146;11.576;2023-03-20T09:39:46;2.30;;;1.43;;
15443;SDS011;7822;48.146;11.576;2023-03-20T09:42:17;2.13;;;1.20;;
15443;SDS011;7822;48.146;11.576;2023-03-20T09:44:59;1.33;;;1.23;;
15443;SDS011;7822;48.146;11.576;2023-03-20T09:47:32;1.30;;;1.20;;
15443;SDS011;7822;48.146;11.576;2023-03-20T09:50:10;1.27;;;1.17;;
15443;SDS011;7822;48.146;11.576;2023-03-20T09:52:50;2.30;;;1.50;;
15443;SDS011;7822;48.146;11.576;2023-03-20T09:55:24;2.37;;;1.13;;
15443;SDS011;7822;48.146;11.576;2023-03-20T09:58:00;1.40;;;1.20;;
15443;SDS011;7822;48.146;11.576;2023-03-20T10:00:31;1.30;;;1.20;;
15443;SDS011;7822;48.146;11.576;2023-03-20T10:03:02;1.30;;;1.20;;
15443;SDS011;7822;48.146;11.576;2023-03-20T10:05:33;2.00;;;1.40;;
15443;SDS011;7822;48.146;11.576;2023-03-20T10:08:04;1.53;;;1.40;;
15443;SDS011;7822;48.146;11.576;2023-03-20T10:10:45;0.93;;;0.87;;
15443;SDS011;7822;48.146;11.576;2023-03-20T10:13:24;1.30;;;1.00;;
15443;SDS011;7822;48.146;11.576;2023-03-20T10:16:07;1.47;;;1.37;;
15443;SDS011;7822;48.146;11.576;2023-03-20T10:18:43;1.60;;;1.40;;
15443;SDS011;7822;48.146;11.576;2023-03-20T10:21:16;1.57;;;1.17;;
15443;SDS011;7822;48.146;11.576;2023-03-20T10:23:50;1.37;;;1.27;;
15443;SDS011;7822;48.146;11.576;2023-03-20T10:26:27;2.27;;;1.37;;
15443;SDS011;7822;48.146;11.576;2023-03-20T10:29:00;1.63;;;1.20;;
15443;SDS011;7822;48.146;11.576;2023-03-20T10:31:34;1.20;;;1.10;;
15443;SDS011;7822;48.146;11.576;2023-03-20T10:34:16;2.13;;;1.60;;
15443;SDS011;7822;48.146;11.576;2023-03-20T10:36:57;1.20;;;1.10;;
15443;SDS011;7822;48.146;11.576;2023-03-20T10:39:34;1.20;;;1.10;;
15443;SDS011;7822;48.146;11.576;2023-03-20T10:42:17;1.73;;;1.13;;
15443;SDS011;7822;48.146;11.576;2023-03-20T10:44:49;0.97;;;0.97;;
15443;SDS011;7822;48.146;11.576;2023-03-20T10:47:23;1.63;;;1.20;;
15443;SDS011;7822;48.146;11.576;2023-03-20T10:49:56;1.47;;;1.30;;
15443;SDS011;7822;48.146;11.576;2023-03-20T10:52:28;1.77;;;1.17;;
15443;SDS011;7822;48.146;11.576;2023-03-20T10:54:59;1.90;;;1.37;;
15443;SDS011;7822;48.146;11.576;2023-03-20T10:57:32;1.27;;;1.10;;
15443;SDS011;7822;48.146;11.576;2023-03-20T11:00:05;1.03;;;1.00;;
15443;SDS011;7822;48.146;11.576;2023-03-20T11:02:39;1.40;;;1.27;;
15443;SDS011;7822;48.146;11.576;2023-03-20T11:05:10;1.70;;;1.20;;
15443;SDS011;7822;48.146;11.576;2023-03-20T11:07:48;1.30;;;1.20;;
15443;SDS011;7822;48.146;11.576;2023-03-20T11:10:19;2.33;;;1.10;;
15443;SDS011;7822;48.146;11.576;2023-03-20T11:12:53;2.03;;;1.13;;
15443;SDS011;7822;48.146;11.576;2023-03-20T11:15:22;1.73;;;1.30;;
15443;SDS011;7822;48.146;11.576;2023-03-20T11:17:55;2.80;;;1.27;;
15443;SDS011;7822;48.146;11.576;2023-03-20T11:20:24;2.17;;;1.50;;
15443;SDS011;7822;48.146;11.576;2023-03-20T11:22:56;1.23;;;1.13;;
15443;SDS011;7822;48.146;11.576;2023-03-20T11:25:28;2.07;;;1.23;;
15443;SDS011;7822;48.146;11.576;2023-03-20T11:31:03;1.97;;;1.50;;
15443;SDS011;7822;48.146;11.576;2023-03-20T11:33:35;1.90;;;1.63;;
15443;SDS011;7822;48.146;11.576;2023-03-20T11:36:09;1.73;;;1.30;;
15443;SDS011;7822;48.146;11.576;2023-03-20T11:38:42;2.00;;;1.33;;
15443;SDS011;7822;48.146;11.576;2023-03-20T11:41:15;1.60;;;1.10;;
15443;SDS011;7822;48.146;11.576;2023-03-20T11:43:44;2.63;;;1.63;;
15443;SDS011;7822;48.146;11.576;2023-03-20T11:46:13;2.20;;;1.53;;
15443;SDS011;7822;48.146;11.576;2023-03-20T11:48:41;1.53;;;1.20;;
15443;SDS011;7822;48.146;11.576;2023-03-20T11:51:12;1.73;;;1.47;;
15443;SDS011;7822;48.146;11.576;2023-03-20T11:53:53;1.40;;;1.30;;
15443;SDS011;7822;48.146;11.576;2023-03-20T11:56:27;1.80;;;1.23;;
15443;SDS011;7822;48.146;11.576;2023-03-20T11:58:56;2.63;;;1.57;;
15443;SDS011;7822;48.146;11.576;2023-03-20T12:01:28;3.23;;;1.80;;
15443;SDS011;7822;48.146;11.576;2023-03-20T12:04:03;2.33;;;1.70;;
15443;SDS011;7822;48.146;11.576;2023-03-20T12:06:36;2.57;;;1.53;;
15443;SDS011;7822;48.146;11.576;2023-03-20T12:09:10;1.90;;;1.63;;
15443;SDS011;7822;48.146;11.576;2023-03-20T12:11:51;2.53;;;1.60;;
15443;SDS011;7822;48.146;11.576;2023-03-20T12:14:26;2.00;;;1.43;;
15443;SDS011;7822;48.146;11.576;2023-03-20T12:17:09;1.77;;;1.60;;
15443;SDS011;7822;48.146;11.576;2023-03-20T12:19:51;3.27;;;1.67;;
15443;SDS011;7822;48.146;11.576;2023-03-20T12:22:24;2.03;;;1.33;;
15443;SDS011;7822;48.146;11.576;2023-03-20T12:24:57;2.93;;;1.40;;
15443;SDS011;7822;48.146;11.576;2023-03-20T12:27:31;3.30;;;1.90;;
15443;SDS011;7822;48.146;11.576;2023-03-20T12:30:03;3.17;;;1.80;;
15443;SDS011;7822;48.146;11.576;2023-03-20T12:32:40;2.87;;;1.77;;
15443;SDS011;7822;48.146;11.576;2023-03-20T12:35:14;1.80;;;1.40;;
15443;SDS011;7822;48.146;11.576;2023-03-20T12:37:46;2.57;;;1.60;;
15443;SDS011;7822;48.146;11.576;2023-03-20T12:40:14;2.30;;;1.67;;
15443;SDS011;7822;48.146;11.576;2023-03-20T12:42:47;2.57;;;1.90;;
15443;SDS011;7822;48.146;11.576;2023-03-20T12:45:24;1.97;;;1.50;;
15443;SDS011;7822;48.146;11.576;2023-03-20T12:48:04;2.73;;;1.63;;
15443;SDS011;7822;48.146;11.576;2023-03-20T12:50:46;2.40;;;1.63;;
15443;SDS011;7822;48.146;11.576;2023-03-20T12:53:31;2.33;;;1.30;;
15443;SDS011;7822;48.146;11.576;2023-03-20T12:56:10;2.40;;;1.90;;
15443;SDS011;7822;48.146;11.576;2023-03-20T12:58:49;3.13;;;1.80;;
15443;SDS011;7822;48.146;11.576;2023-03-20T13:01:21;3.20;;;1.70;;
15443;SDS011;7822;48.146;11.576;2023-03-20T13:07:04;1.93;;;1.30;;
15443;SDS011;7822;48.146;11.576;2023-03-20T13:09:51;2.93;;;1.73;;
15443;SDS011;7822;48.146;11.576;2023-03-20T13:12:32;3.13;;;1.70;;
15443;SDS011;7822;48.146;11.576;2023-03-20T13:15:10;2.23;;;1.43;;
15443;SDS011;7822;48.146;11.576;2023-03-20T13:17:49;2.50;;;1.87;;
15443;SDS011;7822;48.146;11.576;2023-03-20T13:20:24;3.23;;;1.60;;
15443;SDS011;7822;48.146;11.576;2023-03-20T13:23:01;3.00;;;1.67;;
15443;SDS011;7822;48.146;11.576;2023-03-20T13:25:42;3.03;;;1.90;;
15443;SDS011;7822;48.146;11.576;2023-03-20T13:28:23;2.37;;;1.37;;
15443;SDS011;7822;48.146;11.576;2023-03-20T13:30:57;4.50;;;1.97;;
15443;SDS011;7822;48.146;11.576;2023-03-20T13:33:34;1.50;;;1.40;;
15443;SDS011;7822;48.146;11.576;2023-03-20T13:36:13;3.00;;;1.53;;
15443;SDS011;7822;48.146;11.576;2023-03-20T13:38:51;2.73;;;1.60;;
15443;SDS011;7822;48.146;11.576;2023-03-20T13:41:24;2.60;;;1.57;;
15443;SDS011;7822;48.146;11.576;2023-03-20T13:43:54;2.60;;;1.50;;
15443;SDS011;7822;48.146;11.576;2023-03-20T13:46:27;1.90;;;1.70;;
15443;SDS011;7822;48.146;11.576;2023-03-20T13:49:00;2.80;;;1.63;;
15443;SDS011;7822;48.146;11.576;2023-03-20T13:51:34;2.43;;;1.60;;
15443;SDS011;7822;48.146;11.576;2023-03-20T13:54:13;2.73;;;1.50;;
15443;SDS011;7822;48.146;11.576;2023-03-20T13:56:53;2.47;;;1.53;;
15443;SDS011;7822;48.146;11.576;2023-03-20T13:59:34;3.17;;;1.50;;
15443;SDS011;7822;48.146;11.576;2023-03-20T14:02:11;1.87;;;1.50;;
15443;SDS011;7822;48.146;11.576;2023-03-20T14:04:50;1.80;;;1.40;;
15443;SDS011;7822;48.146;11.576;2023-03-20T14:07:27;2.17;;;1.50;;
15443;SDS011;7822;48.146;11.576;2023-03-20T14:09:56;1.93;;;1.40;;
15443;SDS011;7822;48.146;11.576;2023-03-20T14:12:46;1.80;;;1.57;;
15443;SDS011;7822;48.146;11.576;2023-03-20T14:15:15;2.67;;;1.50;;
15443;SDS011;7822;48.146;11.576;2023-03-20T14:17:45;2.17;;;1.30;;
15443;SDS011;7822;48.146;11.576;2023-03-20T14:20:19;2.47;;;1.23;;
15443;SDS011;7822;48.146;11.576;2023-03-20T14:22:56;1.73;;;1.33;;
15443;SDS011;7822;48.146;11.576;2023-03-20T14:25:24;3.00;;;1.40;;
15443;SDS011;7822;48.146;11.576;2023-03-20T14:27:56;2.43;;;1.47;;
15443;SDS011;7822;48.146;11.576;2023-03-20T14:30:45;2.30;;;1.40;;
15443;SDS011;7822;48.146;11.576;2023-03-20T14:33:26;2.10;;;1.40;;
15443;SDS011;7822;48.146;11.576;2023-03-20T14:36:10;1.70;;;1.30;;
15443;SDS011;7822;48.146;11.576;2023-03-20T14:38:47;2.10;;;1.30;;
15443;SDS011;7822;48.146;11.576;2023-03-20T14:41:22;2.07;;;1.50;;
15443;SDS011;7822;48.146;11.576;2023-03-20T14:43:57;2.30;;;1.70;;
15443;SDS011;7822;48.146;11.576;2023-03-20T14:46:37;1.90;;;1.40;;
15443;SDS011;7822;48.146;11.576;2023-03-20T14:49:25;2.43;;;1.50;;
15443;SDS011;7822;48.146;11.576;2023-03-20T14:52:13;1.90;;;1.50;;
15443;SDS011;7822;48.146;11.576;2023-03-20T14:54:53;2.27;;;1.40;;
15443;SDS011;7822;48.146;11.576;2023-03-20T14:57:25;1.17;;;1.07;;
15443;SDS011;7822;48.146;11.576;2023-03-20T15:00:19;1.60;;;1.30;;
15443;SDS011;7822;48.146;11.576;2023-03-20T15:02:49;2.10;;;1.40;;
15443;SDS011;7822;48.146;11.576;2023-03-20T15:05:22;1.60;;;1.50;;
15443;SDS011;7822;48.146;11.576;2023-03-20T15:07:54;1.37;;;1.27;;
15443;SDS011;7822;48.146;11.576;2023-03-20T15:10:24;1.83;;;1.67;;
15443;SDS011;7822;48.146;11.576;2023-03-20T15:12:52;2.17;;;1.33;;
15443;SDS011;7822;48.146;11.576;2023-03-20T15:15:22;2.30;;;1.30;;
15443;SDS011;7822;48.146;11.576;2023-03-20T15:17:51;2.70;;;1.40;;
15443;SDS011;7822;48.146;11.576;2023-03-20T15:20:20;1.80;;;1.20;;
15443;SDS011;7822;48.146;11.576;2023-03-20T15:22:50;1.37;;;1.27;;
15443;SDS011;7822;48.146;11.576;2023-03-20T15:25:27;1.90;;;1.30;;